Time;durP1;ratioP1;P1;durP2;ratioP2;P2;SDS_P1;SDS_P2;PMS_P1;PMS_P2;Temp;Humidity;BMP_temperature;BMP_pressure;BME280_temperature;BME280_humidity;BME280_pressure;Samples;Min_cycle;Max_cycle;Signal;HPM_P1;HPM_P2
2022/09/13 00:00:58;;;;;;;3.22;2.12;;;;;;;10.20;79.05;100521.42;1778190;80;25823;-76
2022/09/13 00:03:27;;;;;;;2.02;1.70;;;;;;;10.14;78.88;100518.16;1740934;81;26446;-76
2022/09/13 00:05:54;;;;;;;3.10;2.45;;;;;;;10.06;79.00;100524.92;1771211;79;26487;-76
2022/09/13 00:08:20;;;;;;;3.27;2.35;;;;;;;9.99;79.02;100515.95;1770708;80;25946;-76
2022/09/13 00:10:47;;;;;;;2.70;2.17;;;;;;;9.94;79.09;100511.69;1766009;79;27482;-76
2022/09/13 00:13:16;;;;;;;4.00;2.12;;;;;;;9.90;79.13;100508.53;1768190;80;25803;-76
2022/09/13 00:15:46;;;;;;;3.30;2.08;;;;;;;9.87;79.31;100510.25;1772029;79;25744;-76
2022/09/13 00:18:13;;;;;;;3.63;2.40;;;;;;;9.85;79.49;100506.94;1768941;80;26142;-76
2022/09/13 00:20:40;;;;;;;3.65;3.05;;;;;;;9.84;79.45;100510.61;1761921;80;25815;-77
2022/09/13 00:23:06;;;;;;;5.50;2.92;;;;;;;9.81;79.35;100499.46;1748568;81;27924;-76
2022/09/13 00:25:33;;;;;;;6.75;3.25;;;;;;;9.80;79.26;100505.81;1748793;81;25832;-76
2022/09/13 00:28:00;;;;;;;2.65;2.45;;;;;;;9.76;79.19;100508.03;1747742;81;26018;-76
2022/09/13 00:30:26;;;;;;;4.67;2.10;;;;;;;9.72;78.92;100504.06;1750745;81;25651;-76
2022/09/13 00:32:53;;;;;;;4.00;2.20;;;;;;;9.68;78.78;100503.27;1755612;81;26434;-76
2022/09/13 00:35:19;;;;;;;3.35;2.60;;;;;;;9.63;78.64;100500.31;1775809;79;27467;-76
2022/09/13 00:37:45;;;;;;;4.47;2.30;;;;;;;9.59;78.53;100498.52;1769897;80;25993;-76
2022/09/13 00:40:12;;;;;;;3.10;2.00;;;;;;;9.55;78.66;100494.55;1780953;80;25748;-76
2022/09/13 00:42:38;;;;;;;3.62;2.33;;;;;;;9.51;78.77;100498.61;1778280;79;25436;-76
2022/09/13 00:45:17;;;;;;;3.47;2.30;;;;;;;9.47;78.85;100497.31;1759988;81;26567;-76
2022/09/13 00:48:00;;;;;;;3.87;2.95;;;;;;;9.46;78.86;100500.14;1750354;81;27415;-76
2022/09/13 00:50:36;;;;;;;4.22;3.20;;;;;;;9.40;78.97;100496.87;1751271;81;25799;-76
2022/09/13 00:53:14;;;;;;;6.28;4.00;;;;;;;9.40;79.12;100496.37;1767771;80;25932;-77
2022/09/13 00:56:00;;;;;;;6.50;4.40;;;;;;;9.41;79.21;100496.67;1782076;80;26121;-77
2022/09/13 00:58:33;;;;;;;5.65;3.75;;;;;;;9.41;79.27;100497.20;1731219;81;26602;-77
2022/09/13 01:01:02;;;;;;;5.70;3.55;;;;;;;9.40;79.42;100503.05;1728817;80;27524;-77
2022/09/13 01:03:32;;;;;;;4.80;3.40;;;;;;;9.40;79.46;100495.53;1732826;81;25780;-77
2022/09/13 01:06:07;;;;;;;7.42;3.85;;;;;;;9.37;79.38;100498.05;1735828;81;32611;-76
2022/09/13 01:08:37;;;;;;;6.00;3.67;;;;;;;9.35;79.17;100502.75;1733753;81;25759;-77
2022/09/13 01:11:10;;;;;;;5.15;3.60;;;;;;;9.30;79.10;100507.83;1725881;80;25755;-76
2022/09/13 01:13:38;;;;;;;7.17;4.10;;;;;;;9.24;78.96;100499.17;1733041;82;28305;-77
2022/09/13 01:16:05;;;;;;;5.58;3.47;;;;;;;9.19;79.12;100498.41;1733827;81;25592;-76
2022/09/13 01:18:31;;;;;;;3.75;3.20;;;;;;;9.17;79.23;100506.27;1721712;82;26429;-77
2022/09/13 01:21:20;;;;;;;4.95;3.80;;;;;;;9.11;79.20;100500.31;1713367;82;26294;-76
2022/09/13 01:24:38;;;;;;;4.37;3.22;;;;;;;9.08;79.34;100502.00;1735959;81;26391;-76
2022/09/13 01:27:42;;;;;;;3.77;2.52;;;;;;;9.01;79.16;100499.70;1731734;81;27469;-76
2022/09/13 01:30:23;;;;;;;3.12;2.40;;;;;;;8.92;79.29;100492.75;1681881;84;26152;-76
2022/09/13 01:33:10;;;;;;;3.08;2.42;;;;;;;8.86;79.59;100491.64;1730760;82;25816;-76
2022/09/13 01:36:02;;;;;;;3.70;2.77;;;;;;;8.86;79.78;100489.47;1725582;82;26378;-76
2022/09/13 01:38:59;;;;;;;5.33;2.60;;;;;;;8.84;79.66;100492.33;1729639;82;26084;-75
2022/09/13 01:42:11;;;;;;;4.55;3.10;;;;;;;8.81;79.58;100490.00;1729337;82;28052;-76
2022/09/13 01:45:03;;;;;;;3.40;2.90;;;;;;;8.78;79.48;100487.70;1729202;82;25987;-76
2022/09/13 01:47:54;;;;;;;3.95;2.95;;;;;;;8.73;79.36;100491.89;1731398;82;25741;-76
2022/09/13 01:50:37;;;;;;;3.87;3.02;;;;;;;8.69;79.57;100485.25;1733531;80;25860;-75
2022/09/13 01:53:24;;;;;;;3.37;3.08;;;;;;;8.67;79.65;100476.09;1735805;81;25771;-76
2022/09/13 01:56:09;;;;;;;6.28;3.37;;;;;;;8.66;79.53;100473.61;1731334;82;26998;-75
2022/09/13 01:58:43;;;;;;;5.05;3.10;;;;;;;8.64;79.38;100467.09;1724495;82;26187;-75
2022/09/13 02:01:24;;;;;;;3.33;3.00;;;;;;;8.61;79.24;100468.80;1728262;82;25956;-75
2022/09/13 02:03:58;;;;;;;5.03;3.15;;;;;;;8.58;79.25;100471.81;1730140;82;25956;-76
2022/09/13 02:06:45;;;;;;;7.58;4.10;;;;;;;8.52;79.23;100467.18;1719823;82;26024;-75
2022/09/13 02:09:21;;;;;;;6.12;3.95;;;;;;;8.49;79.27;100456.84;1725252;82;28275;-76
2022/09/13 02:12:00;;;;;;;4.33;3.72;;;;;;;8.47;79.26;100454.36;1727307;82;25832;-75
2022/09/13 02:14:37;;;;;;;5.55;3.90;;;;;;;8.43;79.25;100454.39;1725367;82;26002;-75
2022/09/13 02:17:11;;;;;;;4.72;3.42;;;;;;;8.40;79.27;100452.59;1728789;82;25768;-75
2022/09/13 02:19:56;;;;;;;5.85;4.03;;;;;;;8.35;79.22;100454.44;1731133;82;25916;-76
2022/09/13 02:22:28;;;;;;;7.65;5.58;;;;;;;8.34;79.24;100455.97;1720051;82;27419;-76
2022/09/13 02:25:00;;;;;;;7.65;5.58;;;;;;;8.31;79.21;100459.81;1724999;82;25847;-75
2022/09/13 02:27:31;;;;;;;8.65;6.08;;;;;;;8.26;79.15;100462.16;1703696;83;26486;-75
2022/09/13 02:30:05;;;;;;;6.33;4.87;;;;;;;8.20;79.12;100453.99;1732757;82;25773;-75
2022/09/13 02:32:44;;;;;;;8.75;5.20;;;;;;;8.16;79.12;100458.02;1731833;80;25733;-76
2022/09/13 02:35:19;;;;;;;6.58;4.90;;;;;;;8.12;79.18;100456.70;1713579;82;27510;-75
2022/09/13 02:37:54;;;;;;;7.97;5.08;;;;;;;8.08;79.18;100454.91;1731630;82;25843;-75
2022/09/13 02:40:25;;;;;;;7.20;5.12;;;;;;;8.05;79.04;100452.57;1733374;81;26314;-75
2022/09/13 02:43:09;;;;;;;8.25;5.17;;;;;;;8.01;78.90;100453.09;1733193;82;26389;-75
2022/09/13 02:46:11;;;;;;;8.78;5.45;;;;;;;7.95;78.85;100454.63;1725711;81;26214;-74
2022/09/13 02:48:55;;;;;;;6.95;4.30;;;;;;;7.91;79.03;100451.14;1724807;82;27581;-75
2022/09/13 02:51:47;;;;;;;7.05;5.37;;;;;;;7.86;79.00;100444.15;1731804;81;25733;-76
2022/09/13 02:54:37;;;;;;;7.62;4.92;;;;;;;7.82;79.03;100446.34;1737870;80;26434;-75
2022/09/13 02:57:18;;;;;;;6.93;4.20;;;;;;;7.79;78.94;100440.01;1722135;81;25726;-75
2022/09/13 02:59:47;;;;;;;5.97;4.20;;;;;;;7.76;78.77;100437.17;1732555;80;25767;-75
2022/09/13 03:02:18;;;;;;;4.75;3.40;;;;;;;7.73;78.91;100439.37;1773804;80;27453;-76
2022/09/13 03:04:44;;;;;;;7.00;3.33;;;;;;;7.69;79.05;100428.23;1776078;80;26006;-75
2022/09/13 03:07:13;;;;;;;7.35;3.83;;;;;;;7.67;78.92;100426.73;1774375;80;26557;-76
2022/09/13 03:09:49;;;;;;;8.40;4.15;;;;;;;7.60;78.73;100419.09;1778915;80;25771;-75
2022/09/13 03:12:45;;;;;;;9.95;3.60;;;;;;;7.56;78.84;100416.44;1766997;80;25749;-75
2022/09/13 03:15:41;;;;;;;8.60;5.25;;;;;;;7.53;78.95;100411.44;1767135;80;27458;-76
2022/09/13 03:18:22;;;;;;;7.47;5.03;;;;;;;7.51;79.14;100412.95;1771291;80;25936;-76
2022/09/13 03:21:10;;;;;;;;;;;;;;;7.52;79.34;100409.79;1771776;80;25784;-75
2022/09/13 03:24:08;;;;;;;17.15;9.23;;;;;;;7.51;79.36;100406.28;1780842;80;25599;-76
2022/09/13 03:26:54;;;;;;;18.55;10.10;;;;;;;7.45;79.60;100410.14;1732896;81;25727;-75
2022/09/13 03:29:44;;;;;;;16.55;9.33;;;;;;;7.42;79.59;100409.97;1743259;81;27701;-76
2022/09/13 03:32:25;;;;;;;14.05;7.60;;;;;;;7.41;79.43;100408.81;1740488;81;25769;-76
2022/09/13 03:35:07;;;;;;;;;;;;;;;7.38;79.17;100413.98;1748703;81;25317;-76
2022/09/13 03:37:53;;;;;;;14.78;7.67;;;;;;;7.32;78.80;100401.34;1726307;81;25814;-75
2022/09/13 03:40:43;;;;;;;11.88;6.00;;;;;;;7.24;78.75;100398.71;1737291;81;25872;-75
2022/09/13 03:43:34;;;;;;;11.53;6.20;;;;;;;7.17;78.76;100396.39;1746627;81;28789;-75
2022/09/13 03:46:03;;;;;;;14.23;6.75;;;;;;;7.14;78.77;100393.25;1747762;81;26372;-76
2022/09/13 03:48:35;;;;;;;9.80;5.90;;;;;;;7.11;78.82;100388.24;1750533;81;25377;-75
2022/09/13 03:51:02;;;;;;;9.40;4.33;;;;;;;7.10;78.79;100392.73;1776629;79;26559;-76
2022/09/13 03:53:30;;;;;;;7.58;3.60;;;;;;;7.06;78.91;100390.08;1749416;80;26629;-76
2022/09/13 03:55:57;;;;;;;7.53;4.33;;;;;;;7.03;79.00;100396.56;1743586;81;27920;-75
2022/09/13 03:58:25;;;;;;;11.38;4.87;;;;;;;7.01;79.04;100394.58;1769768;80;25984;-76
2022/09/13 04:00:53;;;;;;;9.58;3.55;;;;;;;6.98;79.04;100392.77;1765926;79;25767;-75
2022/09/13 04:03:20;;;;;;;10.82;4.25;;;;;;;6.97;79.00;100393.78;1745767;80;25758;-76
2022/09/13 04:05:46;;;;;;;11.25;3.92;;;;;;;6.92;79.03;100387.62;1739205;81;25982;-76
2022/09/13 04:08:12;;;;;;;10.80;3.87;;;;;;;6.93;79.20;100393.76;1757434;81;27410;-76
2022/09/13 04:10:39;;;;;;;14.13;4.08;;;;;;;6.92;79.23;100394.77;1750988;81;25848;-76
2022/09/13 04:13:05;;;;;;;8.90;3.80;;;;;;;6.90;79.18;100394.11;1760867;81;26017;-75
2022/09/13 04:15:32;;;;;;;10.72;4.58;;;;;;;6.87;79.10;100393.94;1761024;81;25849;-75
2022/09/13 04:17:59;;;;;;;10.35;5.28;;;;;;;6.84;79.27;100396.92;1756508;79;25794;-75
2022/09/13 04:20:26;;;;;;;9.03;4.25;;;;;;;6.82;79.30;100396.79;1746509;80;28243;-76
2022/09/13 04:22:54;;;;;;;9.30;4.92;;;;;;;6.78;79.26;100396.77;1751706;80;25804;-76
2022/09/13 04:25:21;;;;;;;10.60;4.20;;;;;;;6.74;79.35;100396.28;1746374;80;25917;-76
2022/09/13 04:27:54;;;;;;;8.35;4.58;;;;;;;6.72;79.38;100391.62;1776832;79;26575;-76
2022/09/13 04:30:22;;;;;;;11.00;4.62;;;;;;;6.71;79.35;100393.97;1743272;80;25931;-75
2022/09/13 04:32:49;;;;;;;12.00;6.30;;;;;;;6.70;79.33;100394.11;1736398;81;27463;-75
2022/09/13 04:35:16;;;;;;;20.10;5.08;;;;;;;6.69;79.42;100395.12;1752737;79;26321;-75
2022/09/13 04:37:43;;;;;;;9.03;4.33;;;;;;;6.63;79.51;100393.94;1756102;79;25912;-75
2022/09/13 04:40:10;;;;;;;13.10;4.95;;;;;;;6.62;79.66;100386.13;1749428;80;26425;-75
2022/09/13 04:42:37;;;;;;;32.73;4.70;;;;;;;6.63;79.74;100382.48;1761320;79;25919;-76
2022/09/13 04:45:05;;;;;;;9.70;4.40;;;;;;;6.60;79.72;100392.96;1771568;80;27023;-76
2022/09/13 04:47:32;;;;;;;14.13;5.15;;;;;;;6.61;79.73;100390.62;1767254;80;26473;-75
2022/09/13 04:49:58;;;;;;;27.87;5.78;;;;;;;6.59;79.91;100386.45;1768286;80;25933;-75
2022/09/13 04:52:24;;;;;;;14.80;5.45;;;;;;;6.59;80.02;100384.62;1750345;80;25765;-75
2022/09/13 04:54:51;;;;;;;12.75;5.80;;;;;;;6.56;80.00;100388.13;1776704;80;25763;-76
2022/09/13 04:57:17;;;;;;;10.40;5.10;;;;;;;6.54;80.38;100390.13;1748893;81;28265;-75
2022/09/13 04:59:43;;;;;;;10.65;5.50;;;;;;;6.55;80.55;100387.78;1745717;80;25756;-76
2022/09/13 05:02:10;;;;;;;10.95;5.35;;;;;;;6.55;80.62;100385.13;1749197;80;25725;-75
2022/09/13 05:04:36;;;;;;;8.95;5.33;;;;;;;6.57;80.83;100386.63;1738349;80;26467;-75
2022/09/13 05:07:03;;;;;;;9.00;5.50;;;;;;;6.62;81.03;100384.80;1774548;80;25886;-75
2022/09/13 05:09:29;;;;;;;13.18;5.78;;;;;;;6.65;81.17;100382.63;1769729;80;27557;-75
2022/09/13 05:11:56;;;;;;;11.50;5.67;;;;;;;6.67;81.39;100376.64;1771757;80;25806;-75
2022/09/13 05:14:22;;;;;;;12.63;5.85;;;;;;;6.72;81.73;100376.14;1775461;79;25823;-76
2022/09/13 05:16:48;;;;;;;11.08;5.10;;;;;;;6.77;81.91;100375.16;1772264;80;25740;-76
2022/09/13 05:19:15;;;;;;;18.50;7.87;;;;;;;6.82;82.12;100371.50;1770518;80;25763;-76
2022/09/13 05:21:41;;;;;;;11.05;5.80;;;;;;;6.86;82.25;100362.98;1779301;80;28271;-75
2022/09/13 05:24:08;;;;;;;14.80;6.30;;;;;;;6.91;82.46;100371.30;1775039;80;25945;-76
2022/09/13 05:26:35;;;;;;;15.95;5.78;;;;;;;6.93;82.63;100367.97;1776952;80;26354;-76
2022/09/13 05:29:03;;;;;;;16.35;7.03;;;;;;;6.97;82.82;100366.63;1760972;80;26550;-76
2022/09/13 05:31:36;;;;;;;19.48;7.65;;;;;;;7.03;83.02;100370.95;1768084;80;25865;-75
2022/09/13 05:34:10;;;;;;;15.90;7.17;;;;;;;7.05;83.22;100371.12;1773919;80;27501;-75
2022/09/13 05:36:37;;;;;;;15.10;6.92;;;;;;;7.11;83.47;100372.27;1743735;81;25855;-76
2022/09/13 05:39:05;;;;;;;16.82;7.45;;;;;;;7.13;83.84;100369.77;1764190;80;25735;-76
2022/09/13 05:41:33;;;;;;;16.17;7.83;;;;;;;7.17;84.08;100374.23;1729615;82;26621;-76
2022/09/13 05:43:59;;;;;;;15.23;7.40;;;;;;;7.22;84.42;100370.08;1777342;80;25727;-75
2022/09/13 05:46:26;;;;;;;16.35;7.20;;;;;;;7.30;84.75;100371.88;1757430;80;27443;-75
2022/09/13 05:48:52;;;;;;;15.00;7.70;;;;;;;7.37;85.02;100372.37;1773048;80;25860;-75
2022/09/13 05:51:21;;;;;;;11.90;7.33;;;;;;;7.44;85.42;100365.33;1747245;80;25763;-75
2022/09/13 05:53:51;;;;;;;14.60;8.35;;;;;;;7.51;85.75;100362.31;1782693;80;26542;-75
2022/09/13 05:56:22;;;;;;;12.28;7.08;;;;;;;7.61;85.94;100360.78;1782087;80;25981;-75
2022/09/13 05:58:51;;;;;;;12.07;7.70;;;;;;;7.70;86.15;100360.56;1778664;80;27506;-75
2022/09/13 06:01:24;;;;;;;13.98;7.83;;;;;;;7.80;86.39;100355.03;1769168;80;26199;-76
2022/09/13 06:03:54;;;;;;;10.45;7.10;;;;;;;7.90;86.76;100356.13;1779532;80;25830;-76
2022/09/13 06:06:22;;;;;;;13.58;7.85;;;;;;;8.00;87.13;100357.56;1777566;80;26035;-75
2022/09/13 06:08:56;;;;;;;12.68;9.25;;;;;;;8.12;87.70;100352.17;1771981;80;26399;-76
2022/09/13 06:11:25;;;;;;;12.10;8.40;;;;;;;8.24;88.15;100352.08;1765835;80;27454;-76
2022/09/13 06:13:52;;;;;;;11.15;8.70;;;;;;;8.38;88.68;100345.98;1780643;80;25613;-76
2022/09/13 06:16:19;;;;;;;12.53;10.40;;;;;;;8.51;89.12;100345.41;1779514;80;25748;-76
2022/09/13 06:18:45;;;;;;;19.25;11.97;;;;;;;8.64;89.34;100342.13;1778661;80;25770;-76
2022/09/13 06:21:19;;;;;;;14.13;11.28;;;;;;;8.76;90.00;100346.84;1742454;81;25887;-77
2022/09/13 06:23:50;;;;;;;13.35;10.15;;;;;;;8.87;90.52;100341.57;1746221;80;27458;-77
2022/09/13 06:26:23;;;;;;;15.98;11.70;;;;;;;8.99;90.85;100341.44;1738634;81;25856;-77
2022/09/13 06:28:53;;;;;;;17.45;11.57;;;;;;;9.10;91.13;100340.99;1746250;80;25435;-77
2022/09/13 06:31:23;;;;;;;15.88;12.13;;;;;;;9.22;91.64;100341.69;1742291;81;26406;-76
2022/09/13 06:33:57;;;;;;;16.25;11.70;;;;;;;9.32;91.85;100340.89;1737824;81;25843;-78
2022/09/13 06:36:26;;;;;;;15.25;11.30;;;;;;;9.45;92.25;100346.95;1736385;81;27731;-77
2022/09/13 06:38:52;;;;;;;34.78;25.32;;;;;;;9.58;92.50;100343.08;1749605;81;25839;-77
2022/09/13 06:41:22;;;;;;;24.75;16.52;;;;;;;9.71;92.77;100344.59;1746078;80;25913;-77
2022/09/13 06:43:55;;;;;;;18.27;13.35;;;;;;;9.84;93.03;100346.09;1748447;80;25771;-77
2022/09/13 06:46:23;;;;;;;14.03;11.83;;;;;;;9.98;93.30;100352.43;1733069;80;25329;-77
2022/09/13 06:48:50;;;;;;;15.48;12.43;;;;;;;10.11;93.39;100341.91;1763271;80;27537;-77
2022/09/13 06:51:20;;;;;;;16.30;10.82;;;;;;;10.24;93.62;100340.71;1745853;80;25902;-76
2022/09/13 06:53:47;;;;;;;15.95;11.53;;;;;;;10.38;93.92;100341.64;1757770;80;25898;-77
2022/09/13 06:56:19;;;;;;;11.57;10.38;;;;;;;10.50;93.87;100340.94;1750869;80;26577;-78
2022/09/13 06:58:50;;;;;;;12.95;10.43;;;;;;;10.64;94.15;100340.55;1760032;80;25709;-77
2022/09/13 07:01:24;;;;;;;12.15;9.58;;;;;;;10.78;94.07;100343.64;1761264;80;27435;-77
2022/09/13 07:03:55;;;;;;;11.00;9.63;;;;;;;10.92;94.25;100341.91;1772329;80;25850;-77
2022/09/13 07:06:29;;;;;;;12.65;10.35;;;;;;;11.07;94.56;100342.63;1739617;81;25779;-76
2022/09/13 07:08:55;;;;;;;12.23;9.68;;;;;;;11.22;94.63;100336.64;1774041;80;26384;-75
2022/09/13 07:11:25;;;;;;;13.22;9.03;;;;;;;11.36;94.68;100337.02;1771842;79;26371;-76
2022/09/13 07:13:55;;;;;;;10.38;8.03;;;;;;;11.50;94.82;100332.86;1768764;80;28255;-76
2022/09/13 07:16:25;;;;;;;11.08;7.75;;;;;;;11.66;94.52;100331.70;1757573;80;25815;-77
2022/09/13 07:18:58;;;;;;;10.28;7.35;;;;;;;11.78;93.88;100326.64;1751659;80;25815;-76
2022/09/13 07:21:26;;;;;;;10.05;7.37;;;;;;;11.93;93.46;100324.09;1742427;80;25833;-75
2022/09/13 07:23:55;;;;;;;9.70;6.78;;;;;;;12.06;93.32;100324.13;1744118;81;25719;-76
2022/09/13 07:26:22;;;;;;;11.73;7.03;;;;;;;12.21;92.90;100322.64;1726145;81;26921;-76
2022/09/13 07:28:52;;;;;;;11.08;6.17;;;;;;;12.36;92.74;100319.22;1748979;80;25252;-76
2022/09/13 07:31:24;;;;;;;8.10;6.33;;;;;;;12.50;92.32;100323.59;1757325;80;25778;-76
2022/09/13 07:33:54;;;;;;;11.68;6.33;;;;;;;12.67;92.35;100318.63;1755967;80;25890;-76
2022/09/13 07:36:21;;;;;;;8.38;6.28;;;;;;;12.81;91.92;100314.92;1758808;80;25701;-76
2022/09/13 07:38:48;;;;;;;9.65;6.25;;;;;;;12.94;91.24;100321.60;1758824;80;28342;-76
2022/09/13 07:41:18;;;;;;;10.15;5.62;;;;;;;13.06;91.21;100318.13;1756621;81;25268;-76
2022/09/13 07:43:45;;;;;;;10.63;5.10;;;;;;;13.18;90.68;100314.26;1759008;80;25932;-76
2022/09/13 07:46:16;;;;;;;5.00;3.60;;;;;;;13.29;90.14;100316.30;1736386;81;25849;-76
2022/09/13 07:48:45;;;;;;;11.57;4.50;;;;;;;13.40;89.69;100317.00;1755943;81;25948;-76
2022/09/13 07:51:19;;;;;;;6.72;4.58;;;;;;;13.51;89.29;100317.70;1756778;80;27394;-75
2022/09/13 07:53:48;;;;;;;5.92;4.12;;;;;;;13.62;88.90;100313.52;1756646;81;25865;-76
2022/09/13 07:56:20;;;;;;;7.15;4.35;;;;;;;13.75;88.16;100315.61;1756256;81;25846;-76
2022/09/13 07:58:50;;;;;;;9.78;4.90;;;;;;;13.82;87.49;100316.92;1759506;80;26022;-75
2022/09/13 08:01:23;;;;;;;5.28;4.17;;;;;;;13.89;87.54;100319.08;1757053;80;25852;-76
2022/09/13 08:03:54;;;;;;;5.90;4.25;;;;;;;13.99;87.28;100318.08;1758629;80;27544;-76
2022/09/13 08:06:21;;;;;;;7.60;4.35;;;;;;;14.09;87.07;100318.98;1729885;81;25822;-76
2022/09/13 08:08:47;;;;;;;8.88;3.50;;;;;;;14.20;86.93;100318.30;1756043;81;25918;-76
2022/09/13 08:11:22;;;;;;;5.25;3.77;;;;;;;14.27;86.53;100319.05;1756303;80;26506;-76
2022/09/13 08:13:51;;;;;;;8.93;3.12;;;;;;;14.35;86.18;100318.84;1750714;80;26010;-77
2022/09/13 08:16:20;;;;;;;4.90;2.90;;;;;;;14.45;85.62;100319.18;1735647;80;27309;-76
2022/09/13 08:18:50;;;;;;;3.55;2.55;;;;;;;14.58;85.75;100319.09;1733093;81;26479;-76
2022/09/13 08:21:17;;;;;;;2.90;2.60;;;;;;;14.69;84.91;100314.34;1703005;84;25791;-76
2022/09/13 08:23:44;;;;;;;16.10;3.75;;;;;;;14.78;83.74;100310.84;1753352;81;25764;-76
2022/09/13 08:26:12;;;;;;;7.78;2.83;;;;;;;14.84;84.09;100304.02;1731963;82;25833;-75
2022/09/13 08:28:41;;;;;;;5.50;2.30;;;;;;;14.96;84.02;100300.08;1751658;81;27461;-76
2022/09/13 08:31:11;;;;;;;7.62;2.72;;;;;;;15.07;83.04;100307.44;1748656;80;25807;-75
2022/09/13 08:33:37;;;;;;;2.85;2.00;;;;;;;15.14;82.38;100302.81;1737009;80;25724;-74
2022/09/13 08:36:04;;;;;;;21.52;2.85;;;;;;;15.23;82.30;100300.93;1706759;82;26554;-75
2022/09/13 08:38:31;;;;;;;5.85;2.65;;;;;;;15.33;81.95;100296.38;1762565;80;26353;-75
2022/09/13 08:41:06;;;;;;;4.33;2.20;;;;;;;15.41;81.29;100297.42;1758391;80;28353;-75
2022/09/13 08:44:00;;;;;;;3.80;2.17;;;;;;;15.51;81.05;100295.55;1711486;81;25924;-75
2022/09/13 08:46:34;;;;;;;28.02;3.00;;;;;;;15.64;81.26;100291.34;1717537;82;26416;-75
2022/09/13 08:49:09;;;;;;;8.78;2.02;;;;;;;15.77;80.96;100288.48;1754800;80;26569;-75
2022/09/13 08:51:43;;;;;;;3.22;2.58;;;;;;;15.90;80.40;100295.06;1772156;80;25735;-75
2022/09/13 08:54:15;;;;;;;3.42;1.80;;;;;;;15.99;80.27;100291.00;1740253;81;27472;-75
2022/09/13 08:57:16;;;;;;;54.35;7.85;;;;;;;16.04;79.53;100287.89;1709196;82;25589;-75
2022/09/13 09:00:21;;;;;;;70.30;10.85;;;;;;;16.11;79.61;100287.28;1742953;80;25771;-74
2022/09/13 09:03:16;;;;;;;8.43;3.47;;;;;;;16.23;79.00;100272.98;1755370;80;26489;-75
2022/09/13 09:05:49;;;;;;;4.40;2.35;;;;;;;16.35;78.96;100272.47;1767310;80;25985;-75
2022/09/13 09:08:46;;;;;;;5.15;2.77;;;;;;;16.43;78.85;100258.61;1760539;80;27465;-75
2022/09/13 09:11:41;;;;;;;4.67;2.17;;;;;;;16.50;78.17;100261.55;1737204;81;25939;-75
2022/09/13 09:14:16;;;;;;;5.03;2.40;;;;;;;16.58;78.17;100259.02;1782929;80;26260;-76
2022/09/13 09:16:51;;;;;;;3.62;2.10;;;;;;;16.66;77.92;100258.14;1783828;80;26568;-75
2022/09/13 09:19:33;;;;;;;5.17;2.30;;;;;;;16.72;77.31;100253.14;1764151;79;26138;-75
2022/09/13 09:22:03;;;;;;;6.28;2.58;;;;;;;16.78;77.01;100252.75;1775722;80;27458;-75
2022/09/13 09:24:33;;;;;;;3.58;2.65;;;;;;;16.84;77.27;100247.74;1767037;80;26364;-76
2022/09/13 09:27:02;;;;;;;4.85;2.58;;;;;;;16.91;76.84;100244.39;1773328;80;25827;-75
2022/09/13 09:29:32;;;;;;;4.37;2.15;;;;;;;16.96;76.41;100240.43;1749739;80;25876;-76
2022/09/13 09:32:09;;;;;;;4.47;2.75;;;;;;;17.02;76.44;100236.80;1783256;80;25709;-75
2022/09/13 09:35:02;;;;;;;4.75;2.83;;;;;;;17.08;76.70;100231.78;1773003;80;28366;-75
2022/09/13 09:37:29;;;;;;;4.35;2.40;;;;;;;17.13;76.04;100236.48;1770285;80;25833;-75
2022/09/13 09:40:06;;;;;;;5.87;2.55;;;;;;;17.14;75.42;100233.53;1779426;80;25877;-75
2022/09/13 09:42:42;;;;;;;6.83;2.70;;;;;;;17.18;75.05;100234.70;1782855;80;25862;-76
2022/09/13 09:45:27;;;;;;;3.92;3.10;;;;;;;17.22;75.20;100226.39;1779189;80;26533;-76
2022/09/13 09:48:00;;;;;;;4.65;2.70;;;;;;;17.29;75.86;100227.09;1769239;80;28299;-76
2022/09/13 09:50:31;;;;;;;6.62;3.50;;;;;;;17.37;75.79;100233.48;1759509;81;26455;-76
2022/09/13 09:53:06;;;;;;;3.98;3.12;;;;;;;17.44;75.96;100226.58;1762402;81;26156;-75
2022/09/13 09:55:53;;;;;;;7.67;3.40;;;;;;;17.49;75.74;100223.42;1754668;81;26654;-75
2022/09/13 09:58:44;;;;;;;7.17;3.85;;;;;;;17.55;75.53;100223.05;1736629;81;25324;-75
2022/09/13 10:01:25;;;;;;;4.33;3.50;;;;;;;17.58;75.52;100219.31;1756408;81;27476;-76
2022/09/13 10:04:13;;;;;;;;;;;;;;;17.61;75.40;100216.13;1754641;81;26198;-76
2022/09/13 10:06:42;;;;;;;7.70;4.15;;;;;;;17.63;75.10;100207.75;1759245;81;25860;-75
2022/09/13 10:09:19;;;;;;;6.67;3.20;;;;;;;17.60;75.14;100207.70;1756895;81;26527;-76
2022/09/13 10:11:58;;;;;;;3.70;3.08;;;;;;;17.67;75.79;100206.20;1743406;81;25760;-75
2022/09/13 10:14:46;;;;;;;6.00;3.30;;;;;;;17.72;75.24;100200.89;1754650;81;27458;-75
2022/09/13 10:17:27;;;;;;;5.12;3.30;;;;;;;17.78;75.21;100195.02;1754472;81;25855;-75
2022/09/13 10:20:10;;;;;;;5.65;3.62;;;;;;;17.85;75.50;100195.17;1744700;81;26428;-75
2022/09/13 10:22:36;;;;;;;7.55;3.72;;;;;;;17.90;75.07;100194.45;1775289;80;26311;-75
2022/09/13 10:25:22;;;;;;;7.12;3.95;;;;;;;17.92;75.17;100186.34;1751404;81;25719;-75
2022/09/13 10:27:53;;;;;;;5.10;3.70;;;;;;;17.98;75.41;100185.39;1731469;81;27445;-76
2022/09/13 10:30:36;;;;;;;5.62;3.83;;;;;;;18.05;75.19;100187.38;1762965;79;25795;-76
2022/09/13 10:33:05;;;;;;;6.72;3.58;;;;;;;18.10;74.92;100182.58;1748089;80;25816;-75
2022/09/13 10:35:32;;;;;;;4.17;3.47;;;;;;;18.13;75.19;100184.29;1768564;80;25784;-75
2022/09/13 10:37:59;;;;;;;7.50;4.00;;;;;;;18.17;75.15;100185.96;1770226;80;25911;-75
2022/09/13 10:40:30;;;;;;;6.35;3.87;;;;;;;18.20;75.03;100177.32;1771600;79;27479;-76
2022/09/13 10:42:59;;;;;;;6.95;4.37;;;;;;;18.22;75.12;100173.86;1740441;80;25730;-75
2022/09/13 10:45:30;;;;;;;7.47;3.80;;;;;;;18.25;75.08;100173.34;1764332;79;26429;-75
2022/09/13 10:48:00;;;;;;;;;;;;;;;18.26;74.73;100164.95;1761356;80;25751;-75
2022/09/13 10:50:34;;;;;;;5.85;3.10;;;;;;;18.29;74.80;100158.22;1765131;79;43545;-75
2022/09/13 10:53:04;;;;;;;6.62;3.70;;;;;;;18.28;74.80;100162.02;1780921;80;27468;-75
2022/09/13 10:55:39;;;;;;;5.22;3.62;;;;;;;18.30;74.83;100155.81;1781751;80;25783;-75
2022/09/13 10:58:12;;;;;;;7.45;3.80;;;;;;;18.33;74.93;100161.55;1778175;80;26416;-76
2022/09/13 11:01:03;;;;;;;5.62;3.83;;;;;;;18.36;75.16;100161.07;1771025;80;26582;-76
2022/09/13 11:04:02;;;;;;;4.80;4.28;;;;;;;18.38;74.73;100158.93;1761525;80;25747;-75
2022/09/13 11:06:40;;;;;;;6.00;3.75;;;;;;;18.41;74.75;100158.98;1765718;80;28372;-75
2022/09/13 11:09:45;;;;;;;6.17;3.80;;;;;;;18.43;74.71;100155.48;1769068;80;25788;-75
2022/09/13 11:12:19;;;;;;;5.40;4.40;;;;;;;18.47;74.84;100153.94;1757331;80;25813;-76
2022/09/13 11:14:50;;;;;;;10.23;4.10;;;;;;;18.50;74.75;100149.91;1772848;80;26702;-75
2022/09/13 11:17:39;;;;;;;6.85;4.30;;;;;;;18.51;74.75;100142.88;1758223;80;25269;-75
2022/09/13 11:20:29;;;;;;;5.70;4.30;;;;;;;18.52;74.79;100139.08;1727066;82;27502;-75
2022/09/13 11:23:16;;;;;;;5.05;3.75;;;;;;;18.53;74.45;100135.84;1706656;82;25830;-76
2022/09/13 11:26:08;;;;;;;6.05;4.80;;;;;;;18.54;74.16;100132.86;1715372;82;25752;-76
2022/09/13 11:28:47;;;;;;;6.45;4.58;;;;;;;18.55;73.91;100132.34;1699358;83;26489;-75
2022/09/13 11:31:25;;;;;;;5.95;4.60;;;;;;;18.58;74.34;100130.49;1725825;82;25872;-75
2022/09/13 11:34:18;;;;;;;7.70;4.90;;;;;;;18.60;74.41;100130.53;1727983;82;27606;-75
2022/09/13 11:36:58;;;;;;;5.33;4.35;;;;;;;18.63;74.55;100126.47;1643620;84;25915;-75
2022/09/13 11:39:31;;;;;;;;;;;;;;;18.67;74.42;100115.44;1702565;83;26517;-75
2022/09/13 11:42:44;;;;;;;5.47;4.35;;;;;;;18.69;74.42;100108.66;1706806;83;26266;-75
2022/09/13 11:45:27;;;;;;;4.78;4.03;;;;;;;18.69;74.63;100103.23;1698078;83;25829;-75
2022/09/13 11:48:39;;;;;;;5.53;3.85;;;;;;;18.72;74.25;100103.27;1716313;82;27542;-75
2022/09/13 11:51:27;;;;;;;4.80;4.03;;;;;;;18.75;74.47;100100.89;1712774;83;26326;-75
2022/09/13 11:54:32;;;;;;;7.95;4.33;;;;;;;18.80;74.94;100094.69;1728196;82;25308;-75
2022/09/13 11:57:03;;;;;;;5.97;4.30;;;;;;;18.82;74.84;100086.58;1721989;82;25749;-75
2022/09/13 11:59:41;;;;;;;5.47;4.50;;;;;;;18.82;74.15;100079.80;1733929;82;25799;-75
2022/09/13 12:02:30;;;;;;;6.22;4.45;;;;;;;18.81;74.00;100075.45;1726097;82;28350;-76